Time;durP1;ratioP1;P1;durP2;ratioP2;P2;SDS_P1;SDS_P2;PMS_P1;PMS_P2;Temp;Humidity;BMP_temperature;BMP_pressure;BME280_temperature;BME280_humidity;BME280_pressure;Samples;Min_cycle;Max_cycle;Signal;HPM_P1;HPM_P2
2022/07/16 00:02:48;;;;;;;2.28;1.20;;;;;;;34.29;17.24;100609.56;5031424;28;20037;-74
2022/07/16 00:05:14;;;;;;;3.15;1.17;;;;;;;34.33;17.36;100607.63;5048212;28;20029;-73
2022/07/16 00:07:39;;;;;;;4.15;1.70;;;;;;;34.19;17.35;100613.38;5032486;28;20082;-74
2022/07/16 00:10:05;;;;;;;3.40;1.23;;;;;;;34.15;17.72;100610.13;5047785;28;20033;-74
2022/07/16 00:12:30;;;;;;;7.80;1.23;;;;;;;34.19;17.76;100607.47;5034809;28;20061;-74
2022/07/16 00:14:56;;;;;;;2.53;1.58;;;;;;;34.21;17.46;100612.75;5034551;28;20379;-74
2022/07/16 00:17:21;;;;;;;4.18;1.60;;;;;;;34.16;18.08;100608.72;5034447;28;20451;-74
2022/07/16 00:19:47;;;;;;;8.60;1.75;;;;;;;34.11;17.82;100597.28;5033435;28;20022;-74
2022/07/16 00:22:12;;;;;;;4.72;1.10;;;;;;;34.21;17.85;100598.72;5034323;28;20375;-74
2022/07/16 00:24:38;;;;;;;2.33;1.20;;;;;;;34.19;17.95;100592.66;5034309;28;20041;-74
2022/07/16 00:27:04;;;;;;;3.60;1.30;;;;;;;34.15;17.72;100583.50;5033262;28;20029;-75
2022/07/16 00:29:29;;;;;;;2.30;0.98;;;;;;;34.21;17.40;100601.69;5034166;28;20028;-75
2022/07/16 00:31:55;;;;;;;3.38;1.73;;;;;;;34.29;17.44;100601.44;5049529;28;20025;-75
2022/07/16 00:34:21;;;;;;;2.25;1.48;;;;;;;34.31;17.05;100588.97;5034167;28;20026;-74
2022/07/16 00:36:47;;;;;;;2.20;1.52;;;;;;;34.20;17.32;100594.22;5034772;28;20033;-74
2022/07/16 00:39:12;;;;;;;1.30;0.90;;;;;;;34.16;17.60;100590.19;5034262;28;20032;-74
2022/07/16 00:41:39;;;;;;;3.75;1.20;;;;;;;34.06;17.61;100596.22;5033881;28;20487;-75
2022/07/16 00:44:07;;;;;;;2.28;1.25;;;;;;;34.14;17.69;100590.09;5032696;28;20425;-75
2022/07/16 00:46:34;;;;;;;2.83;1.15;;;;;;;34.06;17.13;100592.50;5034284;28;20036;-75
2022/07/16 00:48:59;;;;;;;3.10;1.23;;;;;;;33.97;17.38;100590.44;5033880;28;20370;-75
2022/07/16 00:51:25;;;;;;;3.35;1.50;;;;;;;34.04;17.68;100583.50;5034159;28;20033;-74
2022/07/16 00:53:52;;;;;;;2.28;1.38;;;;;;;34.04;17.93;100581.34;5033745;28;20021;-74
2022/07/16 00:56:18;;;;;;;4.30;1.45;;;;;;;34.03;17.87;100597.53;5032840;28;20029;-74
2022/07/16 00:58:45;;;;;;;3.05;1.52;;;;;;;33.99;17.98;100585.44;5033802;28;20482;-74
2022/07/16 01:01:11;;;;;;;5.40;2.78;;;;;;;34.04;17.77;100598.31;5033833;28;20060;-74
2022/07/16 01:03:37;;;;;;;2.42;1.40;;;;;;;34.06;17.56;100590.31;5033540;28;20028;-74
2022/07/16 01:06:03;;;;;;;3.60;1.60;;;;;;;34.08;17.56;100587.50;5033690;28;20033;-74
2022/07/16 01:08:29;;;;;;;1.80;1.23;;;;;;;34.12;17.45;100581.84;5032856;28;20373;-74
2022/07/16 01:10:55;;;;;;;5.63;2.05;;;;;;;34.08;17.42;100584.53;5032410;28;20104;-74
2022/07/16 01:13:21;;;;;;;4.30;1.60;;;;;;;34.00;17.70;100581.03;5032582;28;20084;-74
2022/07/16 01:15:47;;;;;;;3.22;1.30;;;;;;;34.13;18.07;100588.53;5033546;28;20025;-73
2022/07/16 01:18:12;;;;;;;3.35;1.70;;;;;;;34.08;17.91;100586.72;5033446;28;20032;-73
2022/07/16 01:20:38;;;;;;;3.20;1.60;;;;;;;33.93;17.98;100581.28;5033442;28;20489;-73
2022/07/16 01:23:03;;;;;;;5.82;1.30;;;;;;;33.81;18.21;100582.03;5033661;28;20029;-74
2022/07/16 01:25:29;;;;;;;2.60;1.85;;;;;;;33.85;18.15;100580.78;5032301;28;20034;-73
2022/07/16 01:27:54;;;;;;;3.47;1.65;;;;;;;33.99;17.63;100572.81;5033390;28;20029;-75
2022/07/16 01:30:19;;;;;;;3.08;1.65;;;;;;;33.99;18.20;100569.88;5033323;28;20029;-74
2022/07/16 01:32:45;;;;;;;6.20;1.80;;;;;;;34.01;18.12;100567.03;5033337;28;20057;-74
2022/07/16 01:35:10;;;;;;;3.08;1.63;;;;;;;33.99;18.32;100563.97;5033690;28;20100;-74
2022/07/16 01:37:36;;;;;;;3.17;1.42;;;;;;;34.01;17.92;100567.81;5032980;28;20457;-74
2022/07/16 01:40:02;;;;;;;2.83;1.73;;;;;;;33.95;17.71;100567.41;5030997;28;20103;-74
2022/07/16 01:42:28;;;;;;;2.33;1.80;;;;;;;33.91;17.75;100566.38;5031277;28;20032;-74
2022/07/16 01:44:53;;;;;;;6.03;1.65;;;;;;;33.92;17.81;100562.78;5031105;28;20029;-73
2022/07/16 01:47:18;;;;;;;3.40;1.30;;;;;;;34.03;17.76;100561.25;5031403;28;20271;-73
2022/07/16 01:49:45;;;;;;;1.92;1.17;;;;;;;34.06;17.75;100562.94;5031448;28;20040;-74
2022/07/16 01:52:14;;;;;;;4.32;1.50;;;;;;;34.04;18.00;100562.81;5031617;28;20029;-74
2022/07/16 01:54:45;;;;;;;2.22;1.45;;;;;;;34.09;17.98;100555.75;5031955;28;20096;-74
2022/07/16 01:57:11;;;;;;;7.80;1.77;;;;;;;34.06;17.43;100562.94;5031176;28;20036;-74
2022/07/16 01:59:37;;;;;;;2.35;1.17;;;;;;;33.92;18.36;100556.09;5031059;28;20429;-73
2022/07/16 02:02:02;;;;;;;5.05;1.98;;;;;;;33.86;18.14;100552.72;5030943;28;20036;-74
2022/07/16 02:04:28;;;;;;;5.20;1.48;;;;;;;33.83;18.03;100554.78;5031148;28;20100;-74
2022/07/16 02:06:53;;;;;;;3.17;1.65;;;;;;;33.81;18.27;100554.66;5030122;28;20076;-74
2022/07/16 02:09:19;;;;;;;2.70;2.17;;;;;;;33.98;17.70;100560.22;5031798;28;20026;-73
2022/07/16 02:11:45;;;;;;;5.50;1.88;;;;;;;33.96;18.26;100553.41;5032561;28;20454;-74
2022/07/16 02:14:10;;;;;;;5.10;2.00;;;;;;;33.99;18.18;100552.13;5032925;28;20029;-74
2022/07/16 02:16:35;;;;;;;4.85;1.90;;;;;;;34.02;17.86;100547.88;5031817;28;20124;-74
2022/07/16 02:19:01;;;;;;;3.92;1.70;;;;;;;34.04;17.99;100542.09;5032862;28;20108;-74
2022/07/16 02:21:27;;;;;;;5.28;1.52;;;;;;;33.97;18.29;100532.06;5033185;28;20124;-74
2022/07/16 02:23:53;;;;;;;5.78;1.98;;;;;;;33.89;18.76;100542.59;5031861;28;20485;-74
2022/07/16 02:26:19;;;;;;;3.85;2.55;;;;;;;33.72;18.80;100544.47;5036468;28;20056;-74
2022/07/16 02:28:44;;;;;;;5.93;2.10;;;;;;;33.62;18.86;100545.97;5036503;28;20034;-74
2022/07/16 02:31:09;;;;;;;3.78;1.77;;;;;;;33.59;18.83;100550.19;5036226;28;20451;-74
2022/07/16 02:33:35;;;;;;;3.67;1.85;;;;;;;33.61;19.14;100541.44;5036424;28;20116;-75
2022/07/16 02:36:00;;;;;;;6.03;1.90;;;;;;;33.56;18.84;100539.63;5036441;28;20025;-74
2022/07/16 02:38:26;;;;;;;4.75;2.50;;;;;;;33.49;18.52;100528.84;5034356;28;20040;-74
2022/07/16 02:40:51;;;;;;;4.43;2.42;;;;;;;33.63;19.04;100535.69;5034395;28;20179;-74
2022/07/16 02:43:16;;;;;;;8.45;1.83;;;;;;;33.62;19.06;100543.00;5034141;28;20037;-74
2022/07/16 02:45:42;;;;;;;3.40;1.67;;;;;;;33.71;18.45;100536.25;5033999;28;20029;-74
2022/07/16 02:48:10;;;;;;;5.05;2.10;;;;;;;33.71;18.84;100534.06;5032965;28;20036;-74
2022/07/16 02:50:36;;;;;;;4.63;2.53;;;;;;;33.78;18.66;100535.25;5035839;28;20386;-73
2022/07/16 02:53:02;;;;;;;3.08;2.60;;;;;;;33.92;18.19;100524.34;5016167;28;20052;-74
2022/07/16 02:55:28;;;;;;;5.55;2.03;;;;;;;33.86;18.94;100529.06;5033895;28;20068;-73
2022/07/16 02:57:54;;;;;;;3.45;2.30;;;;;;;33.96;18.12;100530.50;5033801;28;20053;-73
2022/07/16 03:00:20;;;;;;;2.80;2.03;;;;;;;33.89;18.42;100528.59;5035385;28;20398;-73
2022/07/16 03:02:45;;;;;;;5.65;2.40;;;;;;;33.99;18.11;100517.41;5033840;28;20025;-74
2022/07/16 03:05:11;;;;;;;4.75;2.50;;;;;;;33.96;18.44;100529.75;5033725;28;20389;-73
2022/07/16 03:07:37;;;;;;;6.07;2.10;;;;;;;33.89;18.75;100533.72;5032677;28;20044;-74
2022/07/16 03:10:04;;;;;;;4.95;2.65;;;;;;;33.94;18.14;100527.44;5033915;28;20474;-74
2022/07/16 03:12:29;;;;;;;4.53;2.30;;;;;;;33.83;18.53;100525.22;5032256;28;20521;-74
2022/07/16 03:14:55;;;;;;;8.77;3.47;;;;;;;33.85;18.92;100524.59;5033564;28;20030;-73
2022/07/16 03:17:20;;;;;;;3.70;2.17;;;;;;;33.77;18.39;100525.59;5034061;28;20037;-73
2022/07/16 03:19:46;;;;;;;5.18;2.60;;;;;;;33.71;18.34;100525.19;5035426;28;20383;-73
2022/07/16 03:22:11;;;;;;;3.80;1.77;;;;;;;33.81;18.73;100525.09;5033468;28;20025;-73
2022/07/16 03:24:37;;;;;;;3.20;2.05;;;;;;;33.81;18.82;100519.16;5033381;28;20458;-74
2022/07/16 03:27:02;;;;;;;6.07;2.17;;;;;;;33.86;17.92;100520.97;5033349;28;20471;-73
2022/07/16 03:29:27;;;;;;;4.47;2.08;;;;;;;33.90;18.04;100512.38;5033103;28;20383;-74
2022/07/16 03:31:53;;;;;;;4.35;2.28;;;;;;;33.99;18.09;100519.59;5033240;28;20393;-74
2022/07/16 03:34:19;;;;;;;6.05;2.17;;;;;;;33.87;18.24;100519.56;5032848;28;20064;-74
2022/07/16 03:36:44;;;;;;;6.40;2.80;;;;;;;33.94;18.25;100524.47;5032583;28;20029;-74
2022/07/16 03:39:09;;;;;;;5.13;2.10;;;;;;;34.11;18.19;100523.31;5048415;28;20029;-74
2022/07/16 03:41:36;;;;;;;3.33;1.80;;;;;;;34.24;18.44;100519.78;5031709;28;20124;-74
2022/07/16 03:44:04;;;;;;;4.20;1.45;;;;;;;34.36;18.10;100510.88;5033401;28;20053;-74
2022/07/16 03:46:30;;;;;;;1.85;1.52;;;;;;;34.27;18.38;100521.44;5033690;28;20029;-74
2022/07/16 03:48:56;;;;;;;5.97;1.83;;;;;;;34.21;18.62;100515.91;5033375;28;20029;-74
2022/07/16 03:51:22;;;;;;;3.80;1.60;;;;;;;34.29;18.00;100517.84;5034416;28;20057;-74
2022/07/16 03:53:47;;;;;;;5.47;1.83;;;;;;;34.17;17.92;100512.66;5033774;28;20110;-74
2022/07/16 03:56:13;;;;;;;2.15;1.67;;;;;;;33.98;18.40;100515.09;5033905;28;20026;-73
2022/07/16 03:58:39;;;;;;;4.57;1.30;;;;;;;33.87;18.71;100521.75;5032631;28;20075;-74
2022/07/16 04:01:05;;;;;;;3.50;1.65;;;;;;;33.93;19.06;100534.75;5032676;28;20502;-74
2022/07/16 04:03:30;;;;;;;3.42;1.50;;;;;;;33.92;18.42;100536.16;5032952;28;20032;-74
2022/07/16 04:05:55;;;;;;;3.33;1.70;;;;;;;34.10;18.45;100530.66;5032860;28;20037;-74
2022/07/16 04:08:21;;;;;;;5.13;1.85;;;;;;;34.17;18.17;100542.25;5032587;28;20028;-73
2022/07/16 04:10:47;;;;;;;4.00;1.33;;;;;;;34.28;18.11;100531.84;5033061;28;20030;-73
2022/07/16 04:13:13;;;;;;;4.13;1.33;;;;;;;34.36;17.82;100537.50;5034196;28;20036;-74
2022/07/16 04:15:39;;;;;;;4.07;1.40;;;;;;;34.46;17.68;100527.09;5034039;28;20045;-73
2022/07/16 04:18:06;;;;;;;5.60;1.73;;;;;;;34.44;17.68;100517.31;5034477;28;20120;-73
2022/07/16 04:20:33;;;;;;;5.05;1.30;;;;;;;34.33;18.07;100529.94;5034414;28;20026;-73
2022/07/16 04:23:00;;;;;;;1.27;1.10;;;;;;;34.49;18.24;100516.13;5033076;28;20488;-74
2022/07/16 04:25:27;;;;;;;5.82;2.17;;;;;;;34.65;18.19;100514.97;5034646;28;20064;-74
2022/07/16 04:27:52;;;;;;;4.25;1.40;;;;;;;34.69;18.42;100511.50;5016856;28;20029;-74
2022/07/16 04:30:19;;;;;;;1.80;1.30;;;;;;;34.80;18.12;100516.63;5034271;28;20036;-74
2022/07/16 04:32:45;;;;;;;4.00;1.33;;;;;;;34.98;17.62;100514.75;5034452;28;20116;-74
2022/07/16 04:35:20;;;;;;;2.00;1.10;;;;;;;35.12;17.68;100505.22;5033088;28;20030;-74
2022/07/16 04:37:45;;;;;;;1.67;1.30;;;;;;;35.24;17.88;100509.69;5034227;28;20434;-74
2022/07/16 04:40:13;;;;;;;4.78;1.20;;;;;;;35.26;17.18;100503.13;5033685;28;20084;-74
2022/07/16 04:42:44;;;;;;;2.95;1.45;;;;;;;35.47;17.24;100499.91;5032592;28;20372;-74
2022/07/16 04:45:11;;;;;;;1.42;1.30;;;;;;;35.61;16.89;100497.78;5032869;28;20078;-74
2022/07/16 04:47:38;;;;;;;3.08;1.48;;;;;;;35.75;17.26;100498.63;5032703;28;20034;-74
2022/07/16 04:50:04;;;;;;;3.25;1.23;;;;;;;35.94;16.96;100497.44;5032846;28;20044;-74
2022/07/16 04:52:31;;;;;;;3.30;1.55;;;;;;;36.08;16.63;100497.47;5033865;28;20119;-75
2022/07/16 04:55:00;;;;;;;2.10;1.45;;;;;;;36.42;16.66;100496.41;5033621;28;20057;-74
2022/07/16 04:57:26;;;;;;;2.72;1.20;;;;;;;36.82;16.38;100491.13;5034132;28;20021;-74
2022/07/16 05:00:00;;;;;;;5.00;1.25;;;;;;;37.02;16.24;100487.00;4999928;28;20034;-72
2022/07/16 05:05:10;;;;;;;1.00;0.90;;;;;;;37.53;15.67;100490.41;5033933;28;20126;-74
2022/07/16 05:07:38;;;;;;;4.80;1.33;;;;;;;37.86;15.39;100483.03;5032577;28;20057;-72
2022/07/16 05:10:05;;;;;;;3.45;1.67;;;;;;;37.91;15.33;100488.53;5033786;28;20040;-73
2022/07/16 05:12:31;;;;;;;1.45;0.98;;;;;;;38.14;15.05;100486.66;5033871;28;20128;-71
2022/07/16 05:14:56;;;;;;;1.67;0.90;;;;;;;38.38;14.87;100487.78;5048998;28;20449;-73
2022/07/16 05:17:21;;;;;;;2.65;1.40;;;;;;;38.48;15.08;100479.34;5032806;28;20029;-72
2022/07/16 05:19:47;;;;;;;7.55;1.45;;;;;;;38.49;14.60;100480.06;5033748;28;20029;-72
2022/07/16 05:22:14;;;;;;;2.33;1.13;;;;;;;38.72;15.39;100482.63;5032150;28;20038;-71
2022/07/16 05:24:39;;;;;;;1.67;1.10;;;;;;;39.10;14.97;100484.34;5048895;28;20131;-71
2022/07/16 05:27:05;;;;;;;2.15;0.98;;;;;;;39.41;14.68;100476.69;5033394;28;20483;-72
2022/07/16 05:29:37;;;;;;;3.35;1.02;;;;;;;39.68;14.05;100471.13;5033689;28;20049;-71
2022/07/16 05:32:02;;;;;;;2.30;1.02;;;;;;;39.56;13.98;100467.66;5033612;28;20067;-71
2022/07/16 05:34:30;;;;;;;5.78;1.15;;;;;;;39.55;13.96;100472.09;5033226;28;20053;-72
2022/07/16 05:36:56;;;;;;;1.48;0.90;;;;;;;39.57;13.97;100468.44;5033565;28;20028;-73
2022/07/16 05:39:22;;;;;;;3.92;1.13;;;;;;;39.57;14.28;100462.47;5033612;28;20039;-73
2022/07/16 05:41:51;;;;;;;1.60;0.90;;;;;;;39.94;13.85;100464.69;5013636;28;20125;-74
2022/07/16 05:44:17;;;;;;;2.45;0.90;;;;;;;40.12;13.67;100456.44;5013609;28;20026;-72
2022/07/16 05:46:43;;;;;;;4.63;1.10;;;;;;;40.18;13.61;100455.91;5013846;28;20029;-73
2022/07/16 05:49:09;;;;;;;1.30;0.98;;;;;;;40.55;12.94;100450.63;5013484;28;20025;-74
2022/07/16 05:51:38;;;;;;;2.42;1.05;;;;;;;40.77;13.21;100453.66;5014119;28;20091;-71
2022/07/16 05:54:04;;;;;;;4.18;1.40;;;;;;;41.20;12.78;100452.94;5013933;28;20038;-72
2022/07/16 05:56:30;;;;;;;3.17;0.82;;;;;;;41.52;12.57;100452.50;5013522;28;20026;-72
2022/07/16 05:59:01;;;;;;;4.10;1.40;;;;;;;41.52;12.63;100438.31;5013684;28;20053;-72
2022/07/16 06:01:30;;;;;;;4.47;1.10;;;;;;;41.70;12.01;100444.88;5017378;28;20029;-72
2022/07/16 06:03:56;;;;;;;2.33;0.93;;;;;;;42.02;12.16;100435.41;5025340;28;20034;-71
2022/07/16 06:06:23;;;;;;;3.60;1.27;;;;;;;42.37;11.61;100437.19;5005377;28;20419;-72
2022/07/16 06:08:50;;;;;;;3.28;1.00;;;;;;;42.00;11.75;100438.31;5019623;28;20041;-72
2022/07/16 06:11:16;;;;;;;5.72;1.95;;;;;;;41.90;12.62;100432.78;5029144;28;20036;-73
2022/07/16 06:13:44;;;;;;;2.08;0.90;;;;;;;41.75;11.49;100436.78;5005293;28;20054;-72
2022/07/16 06:16:11;;;;;;;7.32;1.77;;;;;;;41.90;11.84;100432.03;5017015;28;20040;-74
2022/07/16 06:18:36;;;;;;;4.78;0.80;;;;;;;41.56;11.84;100431.69;5016947;28;20041;-73
2022/07/16 06:21:03;;;;;;;1.90;0.90;;;;;;;41.89;11.52;100430.53;5017275;28;20037;-75
2022/07/16 06:23:30;;;;;;;3.45;0.88;;;;;;;42.39;11.41;100426.03;5032456;28;20153;-74
2022/07/16 06:26:02;;;;;;;9.85;0.73;;;;;;;43.46;10.90;100425.88;5031756;28;20026;-75
2022/07/16 06:28:27;;;;;;;2.00;0.88;;;;;;;44.48;10.57;100419.88;5029047;28;20480;-76
2022/07/16 06:30:54;;;;;;;1.05;0.70;;;;;;;45.34;10.13;100413.94;5015014;28;20026;-76
2022/07/16 06:33:20;;;;;;;3.20;0.70;;;;;;;45.59;9.57;100415.09;5016567;28;20030;-76
2022/07/16 06:35:47;;;;;;;1.63;1.10;;;;;;;45.52;10.10;100407.44;5016400;28;20030;-74
2022/07/16 06:38:14;;;;;;;6.85;0.93;;;;;;;45.90;9.60;100405.00;5015286;28;20092;-73
2022/07/16 06:40:43;;;;;;;2.03;0.73;;;;;;;46.18;9.13;100397.84;5026682;28;20501;-74
2022/07/16 06:43:09;;;;;;;1.23;0.60;;;;;;;45.72;8.73;100394.94;5034534;28;20048;-73
2022/07/16 06:45:34;;;;;;;3.17;1.00;;;;;;;46.43;8.72;100387.53;5034567;28;20041;-75
2022/07/16 06:48:00;;;;;;;7.05;1.05;;;;;;;46.95;9.04;100392.63;5035941;28;20040;-76
2022/07/16 06:50:26;;;;;;;5.00;0.60;;;;;;;46.95;8.71;100384.34;5035605;28;20021;-76
2022/07/16 06:52:54;;;;;;;1.20;0.60;;;;;;;47.31;8.29;100386.91;5035490;28;20072;-74
2022/07/16 06:55:19;;;;;;;1.42;0.57;;;;;;;47.09;8.19;100371.63;5035623;28;20095;-76
2022/07/16 06:57:45;;;;;;;1.75;0.65;;;;;;;47.41;8.40;100374.91;5035318;28;20467;-75
2022/07/16 07:00:12;;;;;;;1.58;0.77;;;;;;;48.13;8.20;100370.75;5035649;28;20040;-76
2022/07/16 07:02:37;;;;;;;3.22;0.70;;;;;;;48.86;7.05;100368.63;5037142;28;20037;-76
2022/07/16 07:05:12;;;;;;;3.67;1.17;;;;;;;49.19;7.10;100371.69;5018074;28;20033;-76
2022/07/16 07:07:38;;;;;;;0.80;0.63;;;;;;;49.02;6.88;100370.13;5035456;28;20033;-76
2022/07/16 07:10:05;;;;;;;1.25;0.55;;;;;;;49.59;6.98;100355.69;5035293;28;20060;-76
2022/07/16 07:12:30;;;;;;;2.03;0.77;;;;;;;50.22;6.43;100353.19;5033901;28;20057;-76
2022/07/16 07:14:57;;;;;;;90.57;11.98;;;;;;;49.96;6.04;100351.00;5034201;28;20064;-76
2022/07/16 07:17:23;;;;;;;5.78;0.70;;;;;;;49.61;6.58;100344.31;5035384;28;20475;-76
2022/07/16 07:19:50;;;;;;;5.85;1.20;;;;;;;49.06;6.43;100342.91;5034260;28;20113;-74
2022/07/16 07:22:16;;;;;;;1.77;0.88;;;;;;;48.58;7.26;100341.38;5050335;28;20061;-74
2022/07/16 07:24:43;;;;;;;0.57;0.55;;;;;;;48.02;7.10;100351.81;5035188;28;20482;-73
2022/07/16 07:27:08;;;;;;;1.10;0.65;;;;;;;47.40;7.31;100352.25;5035256;28;20108;-73
2022/07/16 07:29:37;;;;;;;22.33;3.25;;;;;;;47.18;7.21;100343.75;5033735;28;20140;-73
2022/07/16 07:32:03;;;;;;;2.75;0.75;;;;;;;47.33;6.95;100341.63;5035209;28;20018;-74
2022/07/16 07:34:28;;;;;;;2.95;1.00;;;;;;;47.97;7.13;100344.19;5050268;28;20045;-74
2022/07/16 07:36:55;;;;;;;3.33;0.80;;;;;;;48.17;6.68;100340.50;5035083;28;20045;-74
2022/07/16 07:39:24;;;;;;;2.08;0.75;;;;;;;48.53;6.77;100339.84;5035155;28;20048;-75
2022/07/16 07:41:49;;;;;;;1.67;0.60;;;;;;;48.50;7.41;100341.38;5035212;28;20048;-75
2022/07/16 07:44:19;;;;;;;2.40;0.70;;;;;;;47.80;7.79;100332.81;5034834;28;20029;-75
2022/07/16 07:46:45;;;;;;;2.38;0.52;;;;;;;47.68;7.13;100330.50;5034233;28;20032;-74
2022/07/16 07:49:12;;;;;;;2.90;0.82;;;;;;;47.45;7.95;100344.72;5035091;28;20112;-74
2022/07/16 07:51:39;;;;;;;6.65;1.02;;;;;;;47.60;7.46;100337.25;5035019;28;20021;-74
2022/07/16 07:54:04;;;;;;;2.70;0.40;;;;;;;46.87;7.46;100339.00;5035043;28;20037;-74
2022/07/16 07:56:29;;;;;;;7.13;0.40;;;;;;;46.61;7.31;100338.75;5035171;28;20025;-75
2022/07/16 07:58:57;;;;;;;0.85;0.75;;;;;;;46.27;7.99;100339.91;5050302;28;20463;-75
2022/07/16 08:01:24;;;;;;;3.20;0.63;;;;;;;45.74;8.17;100335.47;5035257;28;20036;-75
2022/07/16 08:03:58;;;;;;;1.25;0.47;;;;;;;45.82;7.93;100341.63;5050293;28;20041;-74
2022/07/16 08:06:23;;;;;;;3.35;0.63;;;;;;;46.44;8.23;100328.00;5034818;28;20107;-75
2022/07/16 08:08:50;;;;;;;1.33;0.40;;;;;;;45.86;8.13;100325.84;5034775;28;20065;-76
2022/07/16 08:11:16;;;;;;;2.15;0.43;;;;;;;45.95;7.77;100310.16;5034710;28;20486;-73
2022/07/16 08:13:42;;;;;;;0.50;0.40;;;;;;;46.33;8.30;100321.88;5035072;28;20073;-73
2022/07/16 08:16:09;;;;;;;3.28;0.47;;;;;;;46.58;7.74;100322.16;5034721;28;20029;-73
2022/07/16 08:18:34;;;;;;;1.05;0.47;;;;;;;47.28;7.45;100321.19;5034706;28;20121;-74
2022/07/16 08:21:00;;;;;;;1.08;0.40;;;;;;;47.14;7.19;100315.81;5034669;28;20073;-73
2022/07/16 08:26:10;;;;;;;3.13;0.60;;;;;;;46.95;7.87;100302.09;5047484;28;20048;-73
2022/07/16 08:28:40;;;;;;;3.03;0.50;;;;;;;47.59;7.58;100316.84;5034483;28;20045;-73
2022/07/16 08:31:06;;;;;;;0.77;0.40;;;;;;;47.46;6.97;100312.25;5034567;28;20513;-74
2022/07/16 08:33:31;;;;;;;5.78;0.45;;;;;;;47.36;6.96;100309.94;5049637;28;20049;-74
2022/07/16 08:35:58;;;;;;;1.48;0.40;;;;;;;46.85;7.30;100305.00;5034372;28;20037;-74
2022/07/16 08:38:24;;;;;;;2.55;0.30;;;;;;;47.14;7.55;100307.50;5032952;28;20386;-74
2022/07/16 08:40:50;;;;;;;1.08;0.40;;;;;;;46.95;8.13;100296.06;5034094;28;20077;-73
2022/07/16 08:43:24;;;;;;;1.05;0.40;;;;;;;47.62;7.80;100298.00;5034332;28;20029;-73
2022/07/16 08:45:51;;;;;;;4.85;1.00;;;;;;;47.62;7.53;100310.06;5034152;28;20382;-74
2022/07/16 08:48:16;;;;;;;3.92;0.63;;;;;;;46.81;7.55;100293.69;5033783;28;20394;-73
2022/07/16 08:50:58;;;;;;;5.40;0.80;;;;;;;46.61;7.20;100302.56;5049508;28;20037;-73
2022/07/16 08:53:24;;;;;;;7.18;0.50;;;;;;;47.01;7.00;100302.16;5034214;28;20038;-73
2022/07/16 08:55:52;;;;;;;2.08;0.40;;;;;;;46.97;6.92;100305.91;5033905;28;20612;-73
2022/07/16 08:58:19;;;;;;;1.90;0.32;;;;;;;47.00;7.52;100291.56;5049126;28;20509;-73
2022/07/16 09:00:45;;;;;;;5.03;1.13;;;;;;;47.28;7.78;100306.09;5032514;28;20494;-73
2022/07/16 09:03:15;;;;;;;1.83;0.40;;;;;;;47.23;6.47;100300.00;5032480;28;20490;-74
2022/07/16 09:05:42;;;;;;;1.75;0.40;;;;;;;46.73;7.90;100282.28;5049261;28;20084;-74
2022/07/16 09:08:08;;;;;;;3.90;0.52;;;;;;;47.33;7.62;100295.56;5033742;28;20048;-72
2022/07/16 09:10:43;;;;;;;5.45;0.40;;;;;;;47.74;6.94;100287.47;5032480;28;20025;-73
2022/07/16 09:13:10;;;;;;;10.80;3.00;;;;;;;47.67;6.86;100286.69;5033873;28;20038;-73
2022/07/16 09:15:42;;;;;;;1.75;0.68;;;;;;;47.81;7.35;100286.00;5033913;28;20025;-75
2022/07/16 09:18:19;;;;;;;1.13;0.32;;;;;;;47.91;6.75;100279.97;5049100;28;20038;-75
2022/07/16 09:20:55;;;;;;;3.10;0.50;;;;;;;47.98;7.23;100278.47;5033760;28;20180;-75
2022/07/16 09:23:34;;;;;;;7.72;1.40;;;;;;;47.97;7.29;100267.88;5032239;28;20029;-74
2022/07/16 09:26:10;;;;;;;2.17;0.40;;;;;;;47.79;7.06;100277.66;5031478;28;20136;-75
2022/07/16 09:28:45;;;;;;;5.78;0.63;;;;;;;47.24;8.00;100267.56;5048296;28;20470;-74
2022/07/16 09:31:42;;;;;;;5.88;0.95;;;;;;;48.20;7.33;100266.47;5033372;28;20034;-75
2022/07/16 09:34:12;;;;;;;7.07;0.88;;;;;;;47.88;7.20;100261.06;5033501;28;20384;-75
2022/07/16 09:36:40;;;;;;;1.88;0.50;;;;;;;47.90;6.50;100255.03;5037905;28;20104;-74
2022/07/16 09:39:15;;;;;;;2.28;0.60;;;;;;;47.58;6.67;100258.69;5052999;28;20061;-75
2022/07/16 09:41:44;;;;;;;8.02;0.80;;;;;;;47.88;7.15;100263.34;5036442;28;20057;-75
2022/07/16 09:44:25;;;;;;;1.25;0.50;;;;;;;48.21;6.84;100258.88;5052838;28;20033;-76
2022/07/16 09:47:07;;;;;;;5.88;0.82;;;;;;;48.36;6.60;100260.44;5036082;28;20398;-75
2022/07/16 09:49:51;;;;;;;1.60;0.50;;;;;;;48.21;7.35;100264.19;5053063;28;20120;-75
2022/07/16 09:52:32;;;;;;;3.15;1.08;;;;;;;48.15;6.62;100261.91;5036116;28;20096;-75
2022/07/16 09:54:59;;;;;;;2.10;0.50;;;;;;;48.02;6.62;100257.34;5037225;28;20029;-74
2022/07/16 09:57:28;;;;;;;8.10;1.25;;;;;;;47.73;7.21;100262.53;5052650;28;20291;-75
2022/07/16 10:00:04;;;;;;;18.15;2.97;;;;;;;46.83;6.69;100262.78;5037504;28;20032;-75
2022/07/16 10:02:31;;;;;;;32.10;1.70;;;;;;;46.50;7.20;100264.72;5037405;28;20026;-74
2022/07/16 10:04:57;;;;;;;2.83;1.13;;;;;;;46.17;8.07;100267.47;5037176;28;20021;-75
2022/07/16 10:07:23;;;;;;;8.70;1.05;;;;;;;45.56;7.71;100262.97;5052409;28;20032;-74
2022/07/16 10:09:49;;;;;;;4.80;1.02;;;;;;;44.47;8.97;100262.03;5052726;28;20053;-75
2022/07/16 10:12:30;;;;;;;3.00;0.85;;;;;;;44.45;8.61;100273.28;5035657;28;20524;-73
2022/07/16 10:14:58;;;;;;;7.57;0.60;;;;;;;44.36;8.14;100274.63;5036958;28;20029;-74
2022/07/16 10:17:35;;;;;;;4.80;0.55;;;;;;;43.82;8.80;100269.81;5037202;28;20033;-75
2022/07/16 10:20:11;;;;;;;4.43;0.47;;;;;;;42.52;9.06;100263.06;5035478;28;20056;-75
2022/07/16 10:22:45;;;;;;;0.60;0.30;;;;;;;42.89;9.18;100272.97;5051739;28;20026;-75
2022/07/16 10:25:24;;;;;;;0.80;0.38;;;;;;;43.39;9.53;100270.38;5035591;28;20040;-74
2022/07/16 10:27:55;;;;;;;2.30;0.70;;;;;;;43.78;8.70;100263.72;5035547;28;20033;-73
2022/07/16 10:30:32;;;;;;;3.40;1.10;;;;;;;43.78;9.82;100260.72;5035560;28;20029;-74
2022/07/16 10:33:12;;;;;;;1.50;0.57;;;;;;;44.17;8.76;100252.47;5036852;28;20078;-73
2022/07/16 10:35:43;;;;;;;1.33;0.60;;;;;;;44.09;8.88;100247.06;5036517;28;20033;-74
2022/07/16 10:38:17;;;;;;;4.27;0.43;;;;;;;43.85;9.43;100253.38;5036487;28;20079;-75
2022/07/16 10:40:45;;;;;;;2.03;0.60;;;;;;;43.38;8.83;100265.84;5035989;28;20479;-74
2022/07/16 10:43:22;;;;;;;1.58;0.60;;;;;;;43.15;9.74;100260.84;5036667;28;20033;-74
2022/07/16 10:45:56;;;;;;;2.38;0.60;;;;;;;43.43;9.58;100268.22;5051389;28;20256;-73
2022/07/16 10:48:26;;;;;;;17.63;2.65;;;;;;;42.92;9.55;100263.31;5035048;28;20068;-74
2022/07/16 10:51:14;;;;;;;6.60;1.42;;;;;;;43.00;9.91;100253.75;5035072;28;20363;-74
2022/07/16 10:54:20;;;;;;;9.63;1.00;;;;;;;42.85;10.12;100276.63;5036421;28;20390;-73
2022/07/16 10:56:50;;;;;;;3.33;0.80;;;;;;;42.29;10.57;100269.94;5036087;28;20025;-73
2022/07/16 10:59:22;;;;;;;4.43;0.77;;;;;;;42.03;11.04;100275.22;5036105;28;20057;-73
2022/07/16 11:02:00;;;;;;;5.43;0.65;;;;;;;41.96;11.02;100279.50;5050860;28;20029;-73
2022/07/16 11:04:35;;;;;;;13.15;1.23;;;;;;;41.27;11.70;100286.41;5035041;28;20079;-74
2022/07/16 11:07:12;;;;;;;5.53;0.70;;;;;;;41.73;11.60;100287.06;5051540;28;20065;-74
2022/07/16 11:09:58;;;;;;;3.33;0.60;;;;;;;41.51;11.72;100299.13;5051364;28;20036;-73
2022/07/16 11:12:31;;;;;;;5.78;0.55;;;;;;;41.06;11.95;100311.16;5035730;28;20558;-74
2022/07/16 11:14:59;;;;;;;1.65;1.05;;;;;;;40.82;12.38;100323.06;5051202;28;20041;-74
2022/07/16 11:17:34;;;;;;;16.33;1.88;;;;;;;41.09;13.32;100339.69;5036005;28;20043;-73
2022/07/16 11:20:09;;;;;;;4.55;0.70;;;;;;;40.80;15.41;100365.63;5035838;28;20032;-75
2022/07/16 11:22:36;;;;;;;3.13;1.05;;;;;;;40.45;16.32;100395.72;5034378;28;20485;-75
2022/07/16 11:25:05;;;;;;;7.60;1.95;;;;;;;40.26;16.85;100396.53;5034295;28;20398;-74
2022/07/16 11:27:35;;;;;;;5.28;0.80;;;;;;;40.01;16.84;100419.47;5034471;28;20030;-74
2022/07/16 11:30:04;;;;;;;1.25;1.13;;;;;;;39.77;17.31;100423.75;5034348;28;20021;-72
2022/07/16 11:32:31;;;;;;;1.50;0.95;;;;;;;40.01;17.73;100433.63;5050234;28;20025;-73
2022/07/16 11:35:07;;;;;;;3.58;1.27;;;;;;;40.32;17.92;100432.56;5034233;28;20108;-73
2022/07/16 11:37:57;;;;;;;2.50;1.00;;;;;;;40.44;17.41;100421.06;5035834;28;20025;-73